Anemona — 3EUT9 — position and weather

sailwx.info

Track history (hours):
 
Tides and Currents Weather Stations Pressure Air Temp Water Temp Dewpoint Dewpoint Depression Visibility Wind Speed Wind Dir Waves Ship Positions

Anemona

Last reported at 2017-Mar-24 18:15 UTC. Time now 2017-Mar-27 18:24 UTC.
Position S 33°10' E 152°17'.

Length 192 m; draft 7 m.

Type: Cargo ship. MMSI: 355664000.

Date/timePositionNaut miles runAvg speedWind from/ knotsBaromVisibWave heightAir tempDewpointWater temp
2017-Mar-24 18:15S 33°10' E 152°17'1013.8
2017-Mar-24 17:33S 33°02' E 152°22'1312.8
2017-Mar-24 16:33S 32°50' E 152°28'1212.0
2017-Mar-24 15:33S 32°39' E 152°33'1313.0
2017-Mar-24 14:33S 32°27' E 152°39'1813.4
2017-Mar-24 13:13S 32°09' E 152°45'25212.8
2017-Mar-23 17:32S 28°03' E 153°48'1414.1
2017-Mar-23 16:33S 27°50' E 153°49'3214.0
2017-Mar-23 14:15S 27°17' E 153°51'1213.5
2017-Mar-23 13:23S 27°06' E 153°52'1113.5
2017-Mar-23 12:33S 26°54' E 153°52'1313.3
2017-Mar-23 11:33S 26°41' E 153°53'2512.6
2017-Mar-23 09:32S 26°16' E 153°55'  
Track history (hours):
 
Tides and Currents Weather Stations Pressure Air Temp Water Temp Dewpoint Dewpoint Depression Visibility Wind Speed Wind Dir Waves Ship Positions

Anemona

Last reported at 2017-Mar-24 18:15 UTC. Time now 2017-Mar-27 18:24 UTC.
Position S 33°10' E 152°17'.

Length 192 m; draft 7 m.

Type: Cargo ship. MMSI: 355664000.

Date/timePositionNaut miles runAvg speedWind from/ knotsBaromVisibWave heightAir tempDewpointWater temp
2017-Mar-24 18:15S 33°10' E 152°17'1013.8
2017-Mar-24 17:33S 33°02' E 152°22'1312.8
2017-Mar-24 16:33S 32°50' E 152°28'1212.0
2017-Mar-24 15:33S 32°39' E 152°33'1313.0
2017-Mar-24 14:33S 32°27' E 152°39'1813.4
2017-Mar-24 13:13S 32°09' E 152°45'25212.8
2017-Mar-23 17:32S 28°03' E 153°48'1414.1
2017-Mar-23 16:33S 27°50' E 153°49'3214.0
2017-Mar-23 14:15S 27°17' E 153°51'1213.5
2017-Mar-23 13:23S 27°06' E 153°52'1113.5
2017-Mar-23 12:33S 26°54' E 153°52'1313.3
2017-Mar-23 11:33S 26°41' E 153°53'2512.6
2017-Mar-23 09:32S 26°16' E 153°55'  

Dump ship's entire track history